Annapolitan II — WYZ8643 — position and weather

sailwx.info

Track history (hours):
 
Tides and Currents Weather Stations Pressure Air Temp Water Temp Dewpoint Dewpoint Depression Visibility Wind Speed Wind Dir Waves Ship Positions

Annapolitan II

Owner: CHESAPEAKE MARINE TOURS INC, ANNAPOLIS, MD. More information available from US FCC via Universal Licensing System and Coast Guard Vessel Documentation Center.

Last reported at 2017-Oct-14 21:56 UTC. Time now 2017-Oct-17 11:22 UTC.
Position N 39°17' W 076°37'.

Type: Passenger vessel. MMSI: 367335820.

Date/timePositionNaut miles runAvg speedWind from/ knotsBaromVisibWave heightAir tempDewpointWater temp
2017-Oct-14 21:56N 39°17' W 076°37'2 3.8
2017-Oct-14 21:30N 39°16' W 076°35'2 3.2
2017-Oct-14 21:00N 39°17' W 076°37'2 3.2
2017-Oct-14 20:30N 39°16' W 076°35'2 3.2
2017-Oct-14 20:00N 39°17' W 076°37'1 2.6
2017-Oct-14 19:30N 39°17' W 076°35'1 2.6
2017-Oct-14 19:00N 39°17' W 076°37'1 2.6
2017-Oct-14 18:30N 39°17' W 076°35'1 2.6
2017-Oct-14 18:00N 39°17' W 076°37'2 3.3
2017-Oct-14 17:30N 39°16' W 076°35'2 3.3
2017-Oct-14 17:00N 39°17' W 076°37'1 2.8
2017-Oct-14 16:30N 39°16' W 076°35'1 2.8
2017-Oct-14 16:00N 39°17' W 076°37'0 0.0
2017-Oct-14 15:30N 39°17' W 076°37'0 0.0
2017-Oct-14 15:00N 39°17' W 076°37'0 0.0
2017-Oct-14 14:30N 39°17' W 076°37'0 0.0
2017-Oct-14 14:00N 39°17' W 076°37'  
2017-Oct-12 01:06N 39°17' W 076°37'0 0.0
2017-Oct-12 00:49N 39°17' W 076°37'0 0.9
2017-Oct-12 00:30N 39°17' W 076°36'1 1.1
2017-Oct-12 00:01N 39°17' W 076°36'4 8.2
2017-Oct-11 23:30N 39°14' W 076°32'3 7.0
2017-Oct-11 23:00N 39°16' W 076°35'1 2.5
2017-Oct-11 22:30N 39°17' W 076°36'0 0.0
2017-Oct-11 22:00N 39°17' W 076°36'0 0.6
2017-Oct-11 21:30N 39°17' W 076°37'0 0.4
2017-Oct-11 21:00N 39°17' W 076°36'0 0.0
2017-Oct-11 20:31N 39°17' W 076°36'  
2017-Oct-08 22:53N 39°17' W 076°37'2 4.2
2017-Oct-08 22:30N 39°16' W 076°35'2 3.2
2017-Oct-08 22:00N 39°17' W 076°37'1 2.9
2017-Oct-08 21:30N 39°16' W 076°35'1 2.9
2017-Oct-08 21:01N 39°17' W 076°37'1 2.9
2017-Oct-08 20:31N 39°16' W 076°35'1 2.8
2017-Oct-08 19:59N 39°17' W 076°37'1 3.0
2017-Oct-08 19:30N 39°16' W 076°35'1 2.8
2017-Oct-08 19:00N 39°17' W 076°37'1 2.8
2017-Oct-08 18:30N 39°17' W 076°35'1 2.8
2017-Oct-08 18:01N 39°17' W 076°37'1 2.3
2017-Oct-08 17:31N 39°17' W 076°35'1 2.3
2017-Oct-08 17:00N 39°17' W 076°37'1 2.7
2017-Oct-08 16:30N 39°17' W 076°35'1 2.6
2017-Oct-08 15:59N 39°17' W 076°37'0 0.0
2017-Oct-08 00:03N 39°17' W 076°37'0 0.2
2017-Oct-08 00:00N 39°17' W 076°37'2 3.5
2017-Oct-07 23:30N 39°16' W 076°34'2 3.5
2017-Oct-07 23:00N 39°17' W 076°37'1 2.8
2017-Oct-07 22:30N 39°16' W 076°35'1 2.9
2017-Oct-07 22:00N 39°17' W 076°37'1 3.0
2017-Oct-07 21:30N 39°16' W 076°35'1 3.0
2017-Oct-07 21:00N 39°17' W 076°37'1 2.8
2017-Oct-07 20:30N 39°17' W 076°35'1 2.8
2017-Oct-07 20:00N 39°17' W 076°37'2 3.4
2017-Oct-07 19:30N 39°16' W 076°35'2 3.4
2017-Oct-07 19:00N 39°17' W 076°37'2 4.2
2017-Oct-07 18:30N 39°16' W 076°35'2 4.2
2017-Oct-07 18:00N 39°17' W 076°37'1 2.8
2017-Oct-07 17:30N 39°16' W 076°35'1 2.8
2017-Oct-07 17:00N 39°17' W 076°37'2 3.1
2017-Oct-07 16:30N 39°16' W 076°35'2 3.1
2017-Oct-07 16:00N 39°17' W 076°37'2 3.1
2017-Oct-07 15:30N 39°16' W 076°35'2 3.1
2017-Oct-07 15:00N 39°17' W 076°37'0 0.0
2017-Oct-07 14:30N 39°17' W 076°37'0 0.0
2017-Oct-06 23:36N 39°17' W 076°37'0 0.0
2017-Oct-06 23:31N 39°17' W 076°37'3 6.5
2017-Oct-06 23:00N 39°15' W 076°33'1 1.1
2017-Oct-06 22:30N 39°15' W 076°33'3 6.9
2017-Oct-06 22:01N 39°17' W 076°37'0 0.6
2017-Oct-06 21:31N 39°17' W 076°36'0 0.6
2017-Oct-06 21:01N 39°17' W 076°37'1 2.8
2017-Oct-06 20:30N 39°16' W 076°35'1 2.8
2017-Oct-06 20:00N 39°17' W 076°37'1 2.7
2017-Oct-06 19:30N 39°16' W 076°35'1 2.7
2017-Oct-06 19:01N 39°17' W 076°37'1 2.6
2017-Oct-06 18:30N 39°17' W 076°35'1 2.7
2017-Oct-06 18:00N 39°17' W 076°37'1 2.7
2017-Oct-06 17:31N 39°16' W 076°35'1 2.6
2017-Oct-06 17:00N 39°17' W 076°37'0 0.0
2017-Oct-06 16:31N 39°17' W 076°37'0 0.0
2017-Oct-05 19:51N 39°17' W 076°37'1 4.1
2017-Oct-05 19:30N 39°16' W 076°35'1 2.8
2017-Oct-05 19:00N 39°17' W 076°37'1 2.6
2017-Oct-05 18:30N 39°16' W 076°35'1 2.6
2017-Oct-05 18:00N 39°17' W 076°37'1 2.9
2017-Oct-05 17:30N 39°16' W 076°35'1 2.9
2017-Oct-05 17:00N 39°17' W 076°37'0 0.0
2017-Oct-04 22:45N 39°17' W 076°37'0 1.1
2017-Oct-04 22:31N 39°17' W 076°36'2 4.1
2017-Oct-04 22:01N 39°16' W 076°34'  
Track history (hours):
 
Tides and Currents Weather Stations Pressure Air Temp Water Temp Dewpoint Dewpoint Depression Visibility Wind Speed Wind Dir Waves Ship Positions

Annapolitan II

Owner: CHESAPEAKE MARINE TOURS INC, ANNAPOLIS, MD. More information available from US FCC via Universal Licensing System and Coast Guard Vessel Documentation Center.

Last reported at 2017-Oct-14 21:56 UTC. Time now 2017-Oct-17 11:22 UTC.
Position N 39°17' W 076°37'.

Type: Passenger vessel. MMSI: 367335820.

Date/timePositionNaut miles runAvg speedWind from/ knotsBaromVisibWave heightAir tempDewpointWater temp
2017-Oct-14 21:56N 39°17' W 076°37'2 3.8
2017-Oct-14 21:30N 39°16' W 076°35'2 3.2
2017-Oct-14 21:00N 39°17' W 076°37'2 3.2
2017-Oct-14 20:30N 39°16' W 076°35'2 3.2
2017-Oct-14 20:00N 39°17' W 076°37'1 2.6
2017-Oct-14 19:30N 39°17' W 076°35'1 2.6
2017-Oct-14 19:00N 39°17' W 076°37'1 2.6
2017-Oct-14 18:30N 39°17' W 076°35'1 2.6
2017-Oct-14 18:00N 39°17' W 076°37'2 3.3
2017-Oct-14 17:30N 39°16' W 076°35'2 3.3
2017-Oct-14 17:00N 39°17' W 076°37'1 2.8
2017-Oct-14 16:30N 39°16' W 076°35'1 2.8
2017-Oct-14 16:00N 39°17' W 076°37'0 0.0
2017-Oct-14 15:30N 39°17' W 076°37'0 0.0
2017-Oct-14 15:00N 39°17' W 076°37'0 0.0
2017-Oct-14 14:30N 39°17' W 076°37'0 0.0
2017-Oct-14 14:00N 39°17' W 076°37'  
2017-Oct-12 01:06N 39°17' W 076°37'0 0.0
2017-Oct-12 00:49N 39°17' W 076°37'0 0.9
2017-Oct-12 00:30N 39°17' W 076°36'1 1.1
2017-Oct-12 00:01N 39°17' W 076°36'4 8.2
2017-Oct-11 23:30N 39°14' W 076°32'3 7.0
2017-Oct-11 23:00N 39°16' W 076°35'1 2.5
2017-Oct-11 22:30N 39°17' W 076°36'0 0.0
2017-Oct-11 22:00N 39°17' W 076°36'0 0.6
2017-Oct-11 21:30N 39°17' W 076°37'0 0.4
2017-Oct-11 21:00N 39°17' W 076°36'0 0.0
2017-Oct-11 20:31N 39°17' W 076°36'  
2017-Oct-08 22:53N 39°17' W 076°37'2 4.2
2017-Oct-08 22:30N 39°16' W 076°35'2 3.2
2017-Oct-08 22:00N 39°17' W 076°37'1 2.9
2017-Oct-08 21:30N 39°16' W 076°35'1 2.9
2017-Oct-08 21:01N 39°17' W 076°37'1 2.9
2017-Oct-08 20:31N 39°16' W 076°35'1 2.8
2017-Oct-08 19:59N 39°17' W 076°37'1 3.0
2017-Oct-08 19:30N 39°16' W 076°35'1 2.8
2017-Oct-08 19:00N 39°17' W 076°37'1 2.8
2017-Oct-08 18:30N 39°17' W 076°35'1 2.8
2017-Oct-08 18:01N 39°17' W 076°37'1 2.3
2017-Oct-08 17:31N 39°17' W 076°35'1 2.3
2017-Oct-08 17:00N 39°17' W 076°37'1 2.7
2017-Oct-08 16:30N 39°17' W 076°35'1 2.6
2017-Oct-08 15:59N 39°17' W 076°37'0 0.0
2017-Oct-08 00:03N 39°17' W 076°37'0 0.2
2017-Oct-08 00:00N 39°17' W 076°37'2 3.5
2017-Oct-07 23:30N 39°16' W 076°34'2 3.5
2017-Oct-07 23:00N 39°17' W 076°37'1 2.8
2017-Oct-07 22:30N 39°16' W 076°35'1 2.9
2017-Oct-07 22:00N 39°17' W 076°37'1 3.0
2017-Oct-07 21:30N 39°16' W 076°35'1 3.0
2017-Oct-07 21:00N 39°17' W 076°37'1 2.8
2017-Oct-07 20:30N 39°17' W 076°35'1 2.8
2017-Oct-07 20:00N 39°17' W 076°37'2 3.4
2017-Oct-07 19:30N 39°16' W 076°35'2 3.4
2017-Oct-07 19:00N 39°17' W 076°37'2 4.2
2017-Oct-07 18:30N 39°16' W 076°35'2 4.2
2017-Oct-07 18:00N 39°17' W 076°37'1 2.8
2017-Oct-07 17:30N 39°16' W 076°35'1 2.8
2017-Oct-07 17:00N 39°17' W 076°37'2 3.1
2017-Oct-07 16:30N 39°16' W 076°35'2 3.1
2017-Oct-07 16:00N 39°17' W 076°37'2 3.1
2017-Oct-07 15:30N 39°16' W 076°35'2 3.1
2017-Oct-07 15:00N 39°17' W 076°37'0 0.0
2017-Oct-07 14:30N 39°17' W 076°37'0 0.0
2017-Oct-06 23:36N 39°17' W 076°37'0 0.0
2017-Oct-06 23:31N 39°17' W 076°37'3 6.5
2017-Oct-06 23:00N 39°15' W 076°33'1 1.1
2017-Oct-06 22:30N 39°15' W 076°33'3 6.9
2017-Oct-06 22:01N 39°17' W 076°37'0 0.6
2017-Oct-06 21:31N 39°17' W 076°36'0 0.6
2017-Oct-06 21:01N 39°17' W 076°37'1 2.8
2017-Oct-06 20:30N 39°16' W 076°35'1 2.8
2017-Oct-06 20:00N 39°17' W 076°37'1 2.7
2017-Oct-06 19:30N 39°16' W 076°35'1 2.7
2017-Oct-06 19:01N 39°17' W 076°37'1 2.6
2017-Oct-06 18:30N 39°17' W 076°35'1 2.7
2017-Oct-06 18:00N 39°17' W 076°37'1 2.7
2017-Oct-06 17:31N 39°16' W 076°35'1 2.6
2017-Oct-06 17:00N 39°17' W 076°37'0 0.0
2017-Oct-06 16:31N 39°17' W 076°37'0 0.0
2017-Oct-05 19:51N 39°17' W 076°37'1 4.1
2017-Oct-05 19:30N 39°16' W 076°35'1 2.8
2017-Oct-05 19:00N 39°17' W 076°37'1 2.6
2017-Oct-05 18:30N 39°16' W 076°35'1 2.6
2017-Oct-05 18:00N 39°17' W 076°37'1 2.9
2017-Oct-05 17:30N 39°16' W 076°35'1 2.9
2017-Oct-05 17:00N 39°17' W 076°37'0 0.0
2017-Oct-04 22:45N 39°17' W 076°37'0 1.1
2017-Oct-04 22:31N 39°17' W 076°36'2 4.1
2017-Oct-04 22:01N 39°16' W 076°34'  

Dump ship's entire track history